Indianapolis, Indiana
Traffic Map
Current Weather Conditions
Indianapolis, Indiana
Scattered Clouds
Scattered Clouds
74°
Feels Like: 74°
Wind Chill: 74° Ceiling: Unl
Heat Index: 74° Visibility: 10mi
Dew Point: 62° Wind: 3mph
Humidity: 66% Direction: 30° (NNE)
Pressure: 30.02in Gusts: 0mph
Raw Report DataKIND 250354Z 03003KT 10SM FEW130 SCT250 23/17 A3002 RMK AO2 SLP158 T02330167
Traffic Incident Summary
Active as of:
Severity:
Category:
InformationThere was an issue retrieving the traffic information for this location. Please try a different location or try again shortly.
Advertisements